Time;durP1;ratioP1;P1;durP2;ratioP2;P2;SDS_P1;SDS_P2;PMS_P1;PMS_P2;Temp;Humidity;BMP_temperature;BMP_pressure;BME280_temperature;BME280_humidity;BME280_pressure;Samples;Min_cycle;Max_cycle;Signal;HPM_P1;HPM_P2
2022/05/17 00:02:03;;;;;;;6.27;4.03;;;13.60;99.90;;;;;;4982652;28;20575;-80
2022/05/17 00:04:30;;;;;;;8.20;7.37;;;13.60;99.90;;;;;;4979583;28;20197;-80
2022/05/17 00:06:58;;;;;;;8.47;7.60;;;13.60;99.90;;;;;;4978744;28;20662;-79
2022/05/17 00:09:25;;;;;;;7.63;6.10;;;13.70;99.90;;;;;;4981199;28;20229;-80
2022/05/17 00:11:52;;;;;;;8.60;7.90;;;13.70;99.90;;;;;;4980025;28;20198;-80
2022/05/17 00:14:20;;;;;;;9.47;8.57;;;13.70;99.90;;;;;;4981392;28;20221;-80
2022/05/17 00:16:47;;;;;;;9.13;8.20;;;13.70;99.90;;;;;;4983107;28;20217;-79
2022/05/17 00:19:18;;;;;;;9.60;8.80;;;13.70;99.90;;;;;;4983551;28;20762;-80
2022/05/17 00:21:45;;;;;;;9.37;8.67;;;13.70;99.90;;;;;;4978579;28;20203;-81
2022/05/17 00:24:13;;;;;;;9.00;8.40;;;13.70;99.90;;;;;;4975772;28;20203;-80
2022/05/17 00:26:40;;;;;;;8.73;8.03;;;13.70;99.90;;;;;;4976026;28;20226;-80
2022/05/17 00:29:07;;;;;;;8.83;8.03;;;13.70;99.90;;;;;;4976095;28;20202;-80
2022/05/17 00:31:35;;;;;;;9.63;8.83;;;13.70;99.90;;;;;;4982776;28;20197;-80
2022/05/17 00:34:03;;;;;;;8.37;7.77;;;13.70;99.90;;;;;;4980056;28;20305;-81
2022/05/17 00:36:30;;;;;;;8.53;7.93;;;13.70;99.90;;;;;;4982661;28;20761;-80
2022/05/17 00:38:57;;;;;;;6.50;5.70;;;13.70;99.90;;;;;;4979607;28;20204;-79
2022/05/17 00:41:26;;;;;;;4.60;3.90;;;13.60;99.90;;;;;;4976091;28;20305;-80
2022/05/17 00:46:44;;;;;;;6.43;5.80;;;13.50;99.90;;;;;;4983187;28;20224;-80
2022/05/17 00:49:14;;;;;;;7.30;6.40;;;13.40;99.90;;;;;;4978887;28;20663;-80
2022/05/17 00:51:43;;;;;;;9.77;5.90;;;13.30;99.90;;;;;;4980682;28;20197;-81
2022/05/17 00:54:14;;;;;;;5.90;5.30;;;13.30;99.90;;;;;;4979768;28;20221;-80
2022/05/17 00:56:47;;;;;;;4.93;3.60;;;13.30;99.90;;;;;;4978877;28;20266;-80
2022/05/17 00:59:14;;;;;;;5.03;3.80;;;13.20;99.90;;;;;;4980361;28;20207;-81
2022/05/17 01:01:43;;;;;;;5.50;4.43;;;13.20;99.90;;;;;;4979512;28;20202;-80
2022/05/17 01:04:13;;;;;;;5.13;4.07;;;13.20;99.90;;;;;;4983200;28;20197;-80
2022/05/17 01:06:43;;;;;;;5.10;3.70;;;13.20;99.90;;;;;;4970996;28;20232;-80
2022/05/17 01:09:10;;;;;;;4.00;3.60;;;13.20;99.90;;;;;;4975397;28;20212;-79
2022/05/17 01:11:37;;;;;;;5.43;3.83;;;13.20;99.90;;;;;;4979815;28;20196;-78
2022/05/17 01:16:50;;;;;;;5.30;3.97;;;13.10;99.90;;;;;;4989588;28;20214;-80
2022/05/17 01:19:17;;;;;;;4.77;3.70;;;13.10;99.90;;;;;;4980355;28;20198;-80
2022/05/17 01:21:46;;;;;;;6.90;4.63;;;13.00;99.90;;;;;;4982285;28;20197;-80
2022/05/17 01:24:13;;;;;;;6.60;4.13;;;13.10;99.90;;;;;;4976200;28;20699;-81
2022/05/17 01:26:43;;;;;;;9.43;4.23;;;13.00;99.90;;;;;;4979839;28;20228;-80
2022/05/17 01:29:11;;;;;;;5.97;4.00;;;13.00;99.90;;;;;;4979746;28;20208;-80
2022/05/17 01:31:39;;;;;;;5.50;4.10;;;13.00;99.90;;;;;;4994944;28;20216;-81
2022/05/17 01:34:07;;;;;;;5.93;4.40;;;13.00;99.90;;;;;;4979130;28;20217;-80
2022/05/17 01:36:34;;;;;;;6.67;4.33;;;12.90;99.90;;;;;;4981988;28;20228;-80
2022/05/17 01:39:03;;;;;;;6.13;4.30;;;12.90;99.90;;;;;;4984629;28;20205;-80
2022/05/17 01:41:31;;;;;;;4.63;3.93;;;12.80;99.90;;;;;;4980574;28;20240;-80
2022/05/17 01:43:59;;;;;;;6.23;4.43;;;12.80;99.90;;;;;;4982294;28;20289;-81
2022/05/17 01:46:27;;;;;;;7.67;4.00;;;12.70;99.90;;;;;;4985010;28;20322;-81
2022/05/17 01:48:54;;;;;;;5.30;4.10;;;12.70;99.90;;;;;;4982969;28;20223;-80
2022/05/17 01:51:22;;;;;;;8.37;4.10;;;12.60;99.90;;;;;;4983570;28;20215;-80
2022/05/17 01:53:49;;;;;;;4.33;3.83;;;12.50;99.90;;;;;;4982886;28;20267;-79
2022/05/17 01:56:17;;;;;;;4.97;4.23;;;12.50;99.90;;;;;;4985506;28;20714;-78
2022/05/17 01:58:44;;;;;;;6.27;4.30;;;12.50;99.90;;;;;;4981043;28;20211;-81
2022/05/17 02:01:12;;;;;;;6.77;4.57;;;12.50;99.90;;;;;;4979325;28;20729;-80
2022/05/17 02:03:39;;;;;;;5.83;4.07;;;12.50;99.90;;;;;;4983616;28;20549;-80
2022/05/17 02:06:07;;;;;;;4.60;3.93;;;12.50;99.90;;;;;;4982450;28;20219;-80
2022/05/17 02:08:34;;;;;;;5.43;4.23;;;12.40;99.90;;;;;;4985732;28;20207;-80
2022/05/17 02:11:01;;;;;;;8.30;4.83;;;12.40;99.90;;;;;;4982668;28;20737;-81
2022/05/17 02:13:30;;;;;;;5.63;4.77;;;12.40;99.90;;;;;;4985900;28;20251;-80
2022/05/17 02:15:57;;;;;;;4.90;4.30;;;12.40;99.90;;;;;;4983443;28;20228;-80
2022/05/17 02:18:24;;;;;;;9.90;4.47;;;12.40;99.90;;;;;;4979829;28;20202;-80
2022/05/17 02:20:51;;;;;;;5.27;4.47;;;12.40;99.90;;;;;;4985490;28;20222;-79
2022/05/17 02:23:18;;;;;;;5.67;4.50;;;12.40;99.90;;;;;;4981641;28;20205;-80
2022/05/17 02:25:45;;;;;;;6.63;4.63;;;12.40;99.90;;;;;;4985481;28;20306;-80
2022/05/17 02:28:12;;;;;;;5.53;4.77;;;12.40;99.90;;;;;;4993493;28;20207;-80
2022/05/17 02:30:43;;;;;;;4.53;4.10;;;12.40;99.90;;;;;;4981874;28;20209;-81
2022/05/17 02:33:10;;;;;;;5.97;3.97;;;12.50;99.90;;;;;;4982105;28;20292;-79
2022/05/17 02:35:37;;;;;;;4.87;4.37;;;12.40;99.90;;;;;;4975675;28;20251;-79
2022/05/17 02:38:04;;;;;;;5.60;4.77;;;12.50;99.90;;;;;;4982254;28;20208;-81
2022/05/17 02:40:31;;;;;;;6.13;4.53;;;12.40;99.90;;;;;;4984797;28;20209;-79
2022/05/17 02:42:58;;;;;;;5.10;4.43;;;12.40;99.90;;;;;;4978084;28;20213;-81
2022/05/17 02:45:25;;;;;;;5.50;4.70;;;12.50;99.90;;;;;;4982290;28;20205;-80
2022/05/17 02:47:54;;;;;;;7.90;5.00;;;12.40;99.90;;;;;;4983156;28;20225;-80
2022/05/17 02:50:21;;;;;;;9.30;8.50;;;12.40;99.90;;;;;;4974680;28;20297;-79
2022/05/17 02:52:50;;;;;;;8.80;8.10;;;12.40;99.90;;;;;;4979169;28;20204;-80
2022/05/17 02:55:17;;;;;;;11.33;8.67;;;12.30;99.90;;;;;;4983840;28;20255;-80
2022/05/17 02:57:44;;;;;;;8.53;7.83;;;12.30;99.90;;;;;;4985227;28;20669;-81
2022/05/17 03:00:14;;;;;;;6.13;5.40;;;12.30;99.90;;;;;;4976766;28;20205;-79
2022/05/17 03:02:41;;;;;;;9.13;6.27;;;12.30;99.90;;;;;;4993144;28;20208;-80
2022/05/17 03:05:11;;;;;;;8.23;7.10;;;12.30;99.90;;;;;;4987266;28;20199;-80
2022/05/17 03:07:38;;;;;;;7.87;7.07;;;12.30;99.90;;;;;;4991743;28;20293;-80
2022/05/17 03:10:06;;;;;;;7.00;6.40;;;12.30;99.90;;;;;;4978130;28;20205;-80
2022/05/17 03:12:33;;;;;;;8.23;7.63;;;12.30;99.90;;;;;;4980782;28;20261;-80
2022/05/17 03:15:00;;;;;;;5.80;4.90;;;12.30;99.90;;;;;;4985445;28;20221;-79
2022/05/17 03:17:27;;;;;;;5.87;4.93;;;12.30;99.90;;;;;;4976298;28;20232;-80
2022/05/17 03:19:55;;;;;;;6.27;5.67;;;12.30;99.90;;;;;;4973625;28;20204;-79
2022/05/17 03:22:24;;;;;;;9.17;8.37;;;12.30;99.90;;;;;;5000393;28;20211;-80
2022/05/17 03:24:51;;;;;;;6.57;4.40;;;12.30;99.90;;;;;;4984626;28;20265;-81
2022/05/17 03:27:19;;;;;;;6.70;4.60;;;12.20;99.90;;;;;;4982825;28;20228;-80
2022/05/17 03:29:46;;;;;;;5.67;5.00;;;12.20;99.90;;;;;;4981808;28;20661;-79
2022/05/17 03:32:13;;;;;;;7.60;4.70;;;12.20;99.90;;;;;;4982133;28;20232;-80
2022/05/17 03:34:40;;;;;;;5.27;4.70;;;12.20;99.90;;;;;;4981088;28;20674;-79
2022/05/17 03:37:07;;;;;;;5.67;5.07;;;12.20;99.90;;;;;;4983338;28;20713;-79
2022/05/17 03:39:35;;;;;;;6.13;4.90;;;12.10;99.90;;;;;;4979111;28;20212;-80
2022/05/17 03:42:03;;;;;;;6.50;5.90;;;12.10;99.90;;;;;;4980585;28;20629;-80
2022/05/17 03:44:29;;;;;;;6.27;5.20;;;12.10;99.90;;;;;;4983493;28;20198;-79
2022/05/17 03:46:56;;;;;;;7.93;5.20;;;12.10;99.90;;;;;;4975273;28;20719;-78
2022/05/17 03:49:23;;;;;;;7.37;6.53;;;12.10;99.90;;;;;;4985333;28;20231;-79
2022/05/17 03:51:50;;;;;;;5.80;5.20;;;12.10;99.90;;;;;;4982271;28;20205;-79
2022/05/17 03:54:21;;;;;;;9.10;5.47;;;12.10;99.90;;;;;;4988183;28;20820;-79
2022/05/17 03:56:52;;;;;;;7.50;5.10;;;12.10;99.90;;;;;;4985278;28;20224;-79
2022/05/17 03:59:19;;;;;;;8.10;5.30;;;12.10;99.90;;;;;;4976300;28;20734;-79
2022/05/17 04:01:46;;;;;;;6.77;5.40;;;12.20;99.90;;;;;;4983831;28;20196;-79
2022/05/17 04:04:13;;;;;;;6.40;5.80;;;12.20;99.90;;;;;;4982851;28;20207;-79
2022/05/17 04:06:40;;;;;;;6.37;5.60;;;12.20;99.90;;;;;;4983661;28;20313;-80
2022/05/17 04:09:07;;;;;;;7.73;5.93;;;12.30;99.90;;;;;;4983830;28;20215;-80
2022/05/17 04:11:35;;;;;;;5.57;4.97;;;12.30;99.90;;;;;;4983186;28;20663;-79
2022/05/17 04:14:04;;;;;;;7.20;5.10;;;12.40;99.90;;;;;;4983559;28;20314;-80
2022/05/17 04:16:32;;;;;;;8.10;5.30;;;12.40;99.90;;;;;;4982241;28;20900;-79
2022/05/17 04:19:00;;;;;;;10.53;9.53;;;12.40;99.90;;;;;;4983503;28;20212;-79
2022/05/17 04:21:27;;;;;;;7.67;5.40;;;12.50;99.90;;;;;;4981234;28;20584;-79
2022/05/17 04:23:54;;;;;;;5.77;4.50;;;12.60;99.90;;;;;;4985707;28;20203;-79
2022/05/17 04:26:21;;;;;;;7.70;5.03;;;12.60;99.90;;;;;;4982989;28;20567;-79
2022/05/17 04:28:49;;;;;;;5.27;4.67;;;12.80;99.90;;;;;;4980134;28;20217;-79
2022/05/17 04:31:20;;;;;;;5.20;4.70;;;12.80;99.90;;;;;;4980762;28;20726;-79
2022/05/17 04:33:48;;;;;;;5.30;4.33;;;12.80;99.90;;;;;;4985669;28;20204;-80
2022/05/17 04:36:15;;;;;;;5.77;4.50;;;12.90;99.90;;;;;;4980704;28;20222;-79
2022/05/17 04:38:42;;;;;;;8.23;4.80;;;13.00;99.90;;;;;;4983564;28;20197;-79
2022/05/17 04:41:09;;;;;;;6.00;4.90;;;13.00;99.90;;;;;;4982012;28;20214;-80
2022/05/17 04:43:37;;;;;;;5.20;4.70;;;13.20;99.90;;;;;;4983560;28;20241;-80
2022/05/17 04:46:05;;;;;;;11.53;10.47;;;13.30;99.90;;;;;;4983475;28;20795;-80
2022/05/17 04:48:33;;;;;;;12.00;11.10;;;13.40;99.90;;;;;;4983006;28;20294;-80
2022/05/17 04:51:00;;;;;;;11.67;10.67;;;13.50;99.90;;;;;;4977509;28;20200;-80
2022/05/17 04:53:28;;;;;;;11.63;10.67;;;13.70;99.90;;;;;;4987430;28;20215;-79
2022/05/17 04:55:54;;;;;;;11.50;10.60;;;13.80;99.90;;;;;;4979752;28;20244;-80
2022/05/17 04:58:22;;;;;;;12.50;11.60;;;14.10;99.90;;;;;;4983798;28;20202;-80
2022/05/17 05:00:49;;;;;;;12.63;11.57;;;14.20;99.90;;;;;;4983628;28;20592;-80
2022/05/17 05:03:16;;;;;;;10.20;9.30;;;14.30;99.90;;;;;;4981132;28;20201;-80
2022/05/17 05:05:44;;;;;;;10.47;9.53;;;14.30;99.90;;;;;;4983248;28;20695;-80
2022/05/17 05:08:11;;;;;;;8.47;7.70;;;14.40;99.90;;;;;;4982483;28;20289;-79
2022/05/17 05:10:42;;;;;;;11.37;8.20;;;14.50;99.90;;;;;;4982128;28;20252;-79
2022/05/17 05:13:12;;;;;;;8.23;7.43;;;14.50;99.90;;;;;;4991359;28;20639;-80
2022/05/17 05:15:42;;;;;;;8.80;7.90;;;14.70;99.90;;;;;;4983918;28;20225;-80
2022/05/17 05:18:09;;;;;;;7.17;6.47;;;14.80;99.90;;;;;;4983882;28;20302;-80
2022/05/17 05:20:38;;;;;;;9.57;8.73;;;14.80;99.90;;;;;;4986850;28;20201;-80
2022/05/17 05:23:07;;;;;;;9.43;8.73;;;15.10;99.90;;;;;;4987146;28;20641;-81
2022/05/17 05:25:35;;;;;;;9.67;8.77;;;15.30;99.90;;;;;;4986940;28;20197;-80
2022/05/17 05:28:03;;;;;;;6.37;5.17;;;15.40;99.90;;;;;;5003572;28;20208;-80
2022/05/17 05:30:30;;;;;;;7.37;6.10;;;15.60;99.90;;;;;;4985238;28;20197;-80
2022/05/17 05:32:58;;;;;;;5.17;4.47;;;15.70;99.90;;;;;;4988060;28;20282;-80
2022/05/17 05:35:26;;;;;;;6.63;6.03;;;15.90;99.90;;;;;;4984942;28;20226;-80
2022/05/17 05:37:53;;;;;;;8.83;6.63;;;16.00;99.90;;;;;;4988112;28;20248;-80
2022/05/17 05:40:22;;;;;;;8.60;7.80;;;16.20;99.90;;;;;;4986530;28;20215;-80
2022/05/17 05:42:50;;;;;;;6.77;6.27;;;16.50;99.90;;;;;;4983244;28;20292;-80
2022/05/17 05:45:19;;;;;;;6.60;6.10;;;17.10;99.90;;;;;;4984417;28;20206;-80
2022/05/17 05:47:46;;;;;;;6.10;4.67;;;17.70;99.90;;;;;;4988827;28;20749;-80
2022/05/17 05:50:13;;;;;;;8.10;6.30;;;18.30;99.90;;;;;;4984194;28;20293;-81
2022/05/17 05:52:42;;;;;;;6.23;5.13;;;18.50;99.90;;;;;;4986315;28;20201;-80
2022/05/17 05:55:16;;;;;;;7.63;6.83;;;18.50;99.90;;;;;;4986267;28;20569;-80
2022/05/17 05:57:45;;;;;;;7.13;6.47;;;18.60;99.90;;;;;;4977411;28;20203;-81
2022/05/17 06:00:12;;;;;;;9.13;8.47;;;18.60;99.90;;;;;;4986138;28;20230;-80
2022/05/17 06:02:42;;;;;;;9.67;8.87;;;18.50;99.90;;;;;;4981547;28;20200;-80
2022/05/17 06:05:10;;;;;;;10.07;8.57;;;18.50;99.90;;;;;;4983565;28;20612;-80
2022/05/17 06:07:37;;;;;;;10.97;9.97;;;18.40;99.90;;;;;;4991455;28;20229;-80
2022/05/17 06:10:05;;;;;;;8.83;8.17;;;18.60;99.90;;;;;;4981457;28;20635;-81
2022/05/17 06:12:32;;;;;;;7.73;7.07;;;18.60;99.90;;;;;;4983888;28;20213;-80
2022/05/17 06:15:00;;;;;;;7.70;7.00;;;18.70;99.90;;;;;;4984369;28;20271;-80
2022/05/17 06:17:28;;;;;;;6.30;5.70;;;18.50;99.90;;;;;;4977757;28;20221;-80
2022/05/17 06:19:56;;;;;;;6.20;5.60;;;18.50;99.90;;;;;;4987097;28;20239;-80
2022/05/17 06:22:23;;;;;;;6.33;5.30;;;18.50;99.90;;;;;;4983200;28;20215;-79
2022/05/17 06:24:50;;;;;;;8.40;7.73;;;18.90;99.90;;;;;;4988099;28;20201;-81
2022/05/17 06:27:17;;;;;;;9.13;8.23;;;19.20;99.90;;;;;;4985380;28;20228;-80
2022/05/17 06:29:44;;;;;;;9.73;7.07;;;19.40;99.90;;;;;;4982497;28;20233;-81
2022/05/17 06:32:14;;;;;;;9.63;8.83;;;19.60;99.90;;;;;;4988577;28;20200;-80
2022/05/17 06:34:45;;;;;;;9.53;5.70;;;19.80;99.90;;;;;;4985918;28;20300;-80
2022/05/17 06:37:12;;;;;;;8.53;7.83;;;20.20;99.90;;;;;;4986595;28;20224;-81
2022/05/17 06:39:39;;;;;;;9.33;8.43;;;20.50;99.90;;;;;;4983847;28;20309;-80
2022/05/17 06:42:08;;;;;;;9.80;9.00;;;20.90;99.90;;;;;;4983146;28;20206;-80
2022/05/17 06:44:37;;;;;;;9.83;8.83;;;21.20;99.90;;;;;;4990151;28;20201;-81
2022/05/17 06:47:04;;;;;;;9.47;8.60;;;21.50;99.90;;;;;;4982709;28;20282;-80
2022/05/17 06:49:33;;;;;;;8.33;7.57;;;21.50;99.90;;;;;;4985451;28;20205;-81
2022/05/17 06:52:02;;;;;;;8.27;7.57;;;21.60;99.90;;;;;;4985715;28;20221;-81
2022/05/17 06:54:29;;;;;;;5.13;3.87;;;21.80;99.90;;;;;;4982882;28;20195;-82
2022/05/17 06:56:56;;;;;;;9.57;8.77;;;22.10;99.90;;;;;;4983734;28;20316;-81
2022/05/17 06:59:24;;;;;;;8.70;7.77;;;22.60;99.90;;;;;;4984437;28;20220;-81
2022/05/17 07:01:50;;;;;;;7.70;7.07;;;22.80;99.90;;;;;;4985591;28;20197;-81
2022/05/17 07:04:18;;;;;;;9.43;4.27;;;22.90;99.90;;;;;;4985894;28;20253;-81
2022/05/17 07:06:47;;;;;;;7.00;6.00;;;23.10;99.90;;;;;;4985175;28;20328;-83
2022/05/17 07:09:14;;;;;;;7.60;6.50;;;23.30;99.90;;;;;;4985941;28;20193;-83
2022/05/17 07:14:25;;;;;;;5.70;5.10;;;23.70;99.90;;;;;;4982410;28;20189;-84
2022/05/17 07:16:52;;;;;;;6.10;4.90;;;24.00;99.90;;;;;;4987804;28;20574;-82
2022/05/17 07:19:19;;;;;;;5.93;3.90;;;24.30;99.90;;;;;;4985899;28;20202;-84
2022/05/17 07:21:47;;;;;;;4.30;3.80;;;24.20;99.90;;;;;;5014095;22;20205;-77
2022/05/17 07:24:14;;;;;;;7.50;3.90;;;24.40;99.90;;;;;;5041790;28;20203;-77
2022/05/17 07:26:41;;;;;;;6.57;4.17;;;24.50;99.90;;;;;;5045817;28;20227;-79
2022/05/17 07:29:10;;;;;;;4.93;3.80;;;24.60;99.90;;;;;;5046353;28;20289;-79
2022/05/17 07:31:37;;;;;;;5.27;3.73;;;24.70;99.90;;;;;;5033604;28;20199;-78
2022/05/17 07:34:04;;;;;;;7.47;4.50;;;24.80;99.90;;;;;;5040235;28;20199;-79
2022/05/17 07:36:32;;;;;;;6.63;3.40;;;24.90;99.90;;;;;;5040983;28;20199;-79
2022/05/17 07:39:00;;;;;;;6.63;4.57;;;24.90;99.90;;;;;;5035424;28;20260;-77
2022/05/17 07:41:27;;;;;;;8.50;4.20;;;25.00;99.90;;;;;;5044773;28;20286;-79
2022/05/17 07:43:54;;;;;;;4.30;3.90;;;24.90;99.90;;;;;;5040734;28;20200;-78
2022/05/17 07:46:21;;;;;;;7.47;6.30;;;25.10;99.90;;;;;;5047736;28;20230;-79
2022/05/17 07:48:48;;;;;;;7.07;5.53;;;25.10;99.90;;;;;;5036468;28;20195;-79
2022/05/17 07:51:15;;;;;;;6.27;4.30;;;24.90;99.90;;;;;;5040275;28;20568;-80
2022/05/17 07:53:42;;;;;;;7.00;4.63;;;25.00;99.90;;;;;;5043556;28;20257;-79
2022/05/17 07:56:12;;;;;;;8.10;4.43;;;25.10;99.90;;;;;;5043441;28;20310;-79
2022/05/17 07:58:38;;;;;;;6.47;4.77;;;25.30;99.90;;;;;;5031789;28;20211;-79
2022/05/17 08:01:05;;;;;;;5.73;4.47;;;25.30;99.90;;;;;;5038069;28;20203;-79
2022/05/17 08:03:33;;;;;;;5.13;4.43;;;25.10;99.90;;;;;;5037661;28;20225;-78
2022/05/17 08:06:00;;;;;;;5.53;4.60;;;25.10;99.90;;;;;;5044351;28;20687;-79
2022/05/17 08:08:27;;;;;;;6.13;4.07;;;25.50;99.90;;;;;;5041825;28;20193;-80
2022/05/17 08:10:54;;;;;;;7.00;4.90;;;25.70;99.90;;;;;;5046464;28;20195;-80
2022/05/17 08:13:25;;;;;;;5.60;4.90;;;25.60;99.90;;;;;;5038874;28;20959;-80
2022/05/17 08:15:53;;;;;;;5.70;5.10;;;25.40;99.90;;;;;;5036759;28;20439;-80
2022/05/17 08:18:20;;;;;;;5.57;4.10;;;25.50;99.90;;;;;;5036091;28;20200;-80
2022/05/17 08:20:53;;;;;;;6.63;4.40;;;25.60;99.90;;;;;;5030976;28;20290;-84
2022/05/17 08:23:20;;;;;;;5.60;4.45;;;25.90;99.90;;;;;;5030203;28;21073;-80
2022/05/17 08:28:32;;;;;;;5.80;4.30;;;26.00;99.90;;;;;;5038074;28;20195;-80
2022/05/17 08:30:59;;;;;;;5.80;4.30;;;25.70;99.90;;;;;;5043139;28;20191;-81
2022/05/17 08:33:26;;;;;;;6.97;4.27;;;25.80;99.90;;;;;;5031818;28;20735;-80
2022/05/17 08:35:55;;;;;;;6.80;4.43;;;25.80;99.90;;;;;;5032254;28;20200;-80
2022/05/17 08:38:24;;;;;;;7.70;4.37;;;26.10;99.90;;;;;;5036865;28;20436;-80
2022/05/17 08:41:11;;;;;;;4.80;4.30;;;26.30;99.90;;;;;;5043273;28;20282;-79
2022/05/17 08:43:50;;;;;;;8.53;6.13;;;26.20;99.90;;;;;;5034748;28;20277;-80
2022/05/17 08:46:39;;;;;;;7.47;6.83;;;26.40;99.90;;;;;;5034506;28;20224;-78
2022/05/17 08:49:15;;;;;;;9.93;5.00;;;26.60;99.90;;;;;;5045070;28;20562;-79
2022/05/17 08:51:44;;;;;;;4.97;3.97;;;26.80;99.90;;;;;;5041302;28;20285;-79
2022/05/17 08:54:16;;;;;;;4.77;3.70;;;27.20;99.90;;;;;;5037162;28;20198;-79
2022/05/17 08:56:48;;;;;;;7.63;4.50;;;27.50;99.90;;;;;;5046376;28;20344;-78
2022/05/17 08:59:23;;;;;;;8.63;5.27;;;27.20;99.90;;;;;;5042653;28;20656;-78
2022/05/17 09:01:59;;;;;;;5.73;3.83;;;26.90;99.90;;;;;;5021405;28;20697;-79
2022/05/17 09:04:46;;;;;;;6.23;5.33;;;26.70;99.90;;;;;;5020790;28;20204;-79
2022/05/17 09:07:23;;;;;;;5.67;5.07;;;26.40;99.90;;;;;;5046581;28;20211;-79
2022/05/17 09:10:02;;;;;;;5.45;3.90;;;26.30;99.90;;;;;;5040686;28;20435;-79
2022/05/17 09:12:37;;;;;;;6.53;4.27;;;26.40;99.90;;;;;;5054573;28;20238;-79
2022/05/17 09:15:07;;;;;;;9.00;8.03;;;26.30;99.90;;;;;;5046586;28;20192;-79
2022/05/17 09:17:36;;;;;;;4.83;4.33;;;26.20;99.90;;;;;;5039688;28;20242;-81
2022/05/17 09:20:05;;;;;;;6.40;3.83;;;26.10;99.90;;;;;;5036819;28;20198;-81
2022/05/17 09:22:31;;;;;;;4.13;3.70;;;26.20;99.90;;;;;;5031046;28;20659;-81
2022/05/17 09:25:00;;;;;;;5.63;5.13;;;26.30;99.90;;;;;;5037968;28;20196;-80
2022/05/17 09:27:30;;;;;;;7.77;5.33;;;26.30;99.90;;;;;;5038019;28;20219;-80
2022/05/17 09:30:07;;;;;;;8.70;7.90;;;26.20;99.90;;;;;;5033432;28;20192;-79
2022/05/17 09:32:38;;;;;;;9.00;8.30;;;26.30;99.90;;;;;;5042190;28;20270;-80
2022/05/17 09:35:11;;;;;;;4.95;3.95;;;26.60;99.90;;;;;;5040885;28;20430;-80
2022/05/17 09:37:42;;;;;;;4.93;3.72;;;26.70;99.90;;;;;;5032055;28;20467;-78
2022/05/17 09:40:13;;;;;;;5.53;5.03;;;26.60;99.90;;;;;;5027428;28;20196;-78
2022/05/17 09:42:53;;;;;;;6.17;3.77;;;26.60;99.90;;;;;;5046391;28;20267;-78
2022/05/17 09:45:36;;;;;;;4.37;3.40;;;26.40;99.90;;;;;;5037345;28;20228;-79
2022/05/17 09:48:06;;;;;;;5.57;3.40;;;26.30;99.90;;;;;;5040842;28;20649;-78
2022/05/17 09:53:38;;;;;;;3.33;2.73;;;26.60;99.90;;;;;;5039603;28;20591;-78
2022/05/17 09:56:07;;;;;;;3.30;3.00;;;26.80;99.90;;;;;;5037474;28;20188;-78
2022/05/17 09:58:36;;;;;;;4.10;3.00;;;26.60;99.90;;;;;;5046863;28;20719;-79
2022/05/17 10:01:14;;;;;;;4.73;3.97;;;26.60;99.90;;;;;;5039167;28;20679;-78
2022/05/17 10:03:43;;;;;;;5.30;4.37;;;26.80;99.90;;;;;;5034749;28;20215;-78
2022/05/17 10:06:15;;;;;;;4.87;3.53;;;26.80;99.90;;;;;;5040181;28;20287;-79
2022/05/17 10:08:47;;;;;;;4.83;3.30;;;26.70;99.90;;;;;;5037301;28;20680;-79
2022/05/17 10:11:21;;;;;;;3.60;2.70;;;26.90;99.90;;;;;;5043141;28;20221;-78
2022/05/17 10:14:04;;;;;;;3.22;2.60;;;27.10;99.70;;;;;;5026687;28;20451;-78
2022/05/17 10:16:40;;;;;;;2.80;2.60;;;27.10;99.90;;;;;;5043011;28;20801;-79
2022/05/17 10:19:17;;;;;;;3.07;2.50;;;26.80;99.90;;;;;;5044524;28;20207;-78
2022/05/17 10:21:49;;;;;;;3.33;3.03;;;26.90;99.90;;;;;;5039525;28;20586;-78
2022/05/17 10:24:24;;;;;;;4.03;2.47;;;26.80;99.90;;;;;;5035240;28;20207;-79
2022/05/17 10:26:58;;;;;;;4.70;4.17;;;26.80;99.90;;;;;;5046306;28;20226;-79
2022/05/17 10:29:32;;;;;;;3.57;3.07;;;26.70;99.50;;;;;;5037344;28;20196;-80
2022/05/17 10:32:08;;;;;;;6.70;6.00;;;26.60;99.90;;;;;;5044143;28;20250;-79
2022/05/17 10:34:45;;;;;;;5.17;4.70;;;26.40;99.90;;;;;;5045346;28;20198;-79
2022/05/17 10:37:18;;;;;;;3.83;2.83;;;26.30;99.90;;;;;;5038711;28;20199;-78
2022/05/17 10:39:52;;;;;;;4.37;4.00;;;26.30;99.90;;;;;;5041053;28;20286;-78
2022/05/17 10:42:20;;;;;;;5.93;3.10;;;26.20;99.90;;;;;;5038572;28;20223;-78
2022/05/17 10:44:50;;;;;;;3.73;3.20;;;26.10;99.80;;;;;;5046068;28;20199;-78
2022/05/17 10:47:28;;;;;;;4.80;2.47;;;26.00;99.90;;;;;;5042526;28;20215;-78
2022/05/17 10:50:19;;;;;;;3.77;2.90;;;26.10;99.90;;;;;;5044228;28;20191;-78
2022/05/17 10:52:59;;;;;;;5.73;3.40;;;26.00;99.90;;;;;;5026178;28;20216;-77
2022/05/17 10:55:32;;;;;;;3.23;2.60;;;25.50;99.90;;;;;;5044145;28;20207;-77
2022/05/17 10:58:05;;;;;;;3.27;2.77;;;25.60;99.90;;;;;;5037888;28;20188;-78
2022/05/17 11:00:39;;;;;;;4.50;3.00;;;25.70;99.90;;;;;;5039217;28;20204;-78
2022/05/17 11:03:47;;;;;;;5.33;3.23;;;25.50;99.90;;;;;;5037448;28;20783;-78
2022/05/17 11:06:26;;;;;;;8.97;8.17;;;25.50;99.90;;;;;;5041439;28;20219;-78
2022/05/17 11:09:01;;;;;;;2.83;2.60;;;25.20;99.90;;;;;;5032904;28;20210;-78
2022/05/17 11:11:43;;;;;;;4.13;3.17;;;25.20;99.90;;;;;;5038969;28;20199;-78
2022/05/17 11:14:18;;;;;;;8.67;6.27;;;25.30;99.90;;;;;;5046091;28;20192;-78
2022/05/17 11:16:54;;;;;;;3.60;2.80;;;25.00;99.90;;;;;;5036255;28;20199;-78
2022/05/17 11:19:28;;;;;;;3.47;2.73;;;25.10;99.90;;;;;;5041112;28;20281;-77
2022/05/17 11:22:01;;;;;;;6.03;3.30;;;25.00;99.80;;;;;;5034581;28;20220;-78
2022/05/17 11:24:47;;;;;;;2.93;2.40;;;24.90;99.90;;;;;;5042885;28;20196;-78
2022/05/17 11:27:27;;;;;;;2.73;2.40;;;25.00;99.90;;;;;;5038233;28;20216;-78
2022/05/17 11:30:10;;;;;;;7.10;6.50;;;25.10;99.90;;;;;;5042720;28;20195;-78
2022/05/17 11:32:40;;;;;;;7.47;6.77;;;25.10;99.90;;;;;;5047667;28;20217;-79
2022/05/17 11:38:07;;;;;;;5.03;4.63;;;25.10;99.90;;;;;;5115921;27;20973;-77
2022/05/17 11:40:54;;;;;;;6.43;5.93;;;25.40;99.90;;;;;;5099218;28;20195;-77
2022/05/17 11:43:43;;;;;;;8.93;8.23;;;25.20;99.90;;;;;;5097738;28;20308;-77
2022/05/17 11:46:55;;;;;;;7.83;7.13;;;25.20;99.90;;;;;;5098675;28;20222;-78
2022/05/17 11:49:41;;;;;;;8.00;7.23;;;24.90;99.90;;;;;;5098860;28;20201;-77
2022/05/17 11:52:30;;;;;;;5.00;3.20;;;24.70;99.90;;;;;;5095681;22;20227;-78
2022/05/17 11:55:02;;;;;;;4.23;2.80;;;24.60;99.90;;;;;;5057671;28;20718;-78
2022/05/17 11:58:09;;;;;;;3.20;2.87;;;24.60;99.90;;;;;;5064296;28;20219;-78
2022/05/17 12:00:48;;;;;;;3.60;2.77;;;24.90;99.90;;;;;;5062163;28;20195;-78
2022/05/17 12:03:50;;;;;;;5.70;3.47;;;24.80;99.90;;;;;;5061845;28;20313;-79
2022/05/17 12:07:04;;;;;;;5.40;3.50;;;24.60;99.90;;;;;;5063541;28;20278;-79
2022/05/17 12:09:38;;;;;;;3.53;3.23;;;24.50;99.90;;;;;;5018088;28;20744;-78
2022/05/17 12:12:34;;;;;;;5.53;4.37;;;24.50;99.90;;;;;;5060398;28;20221;-77
2022/05/17 12:15:32;;;;;;;4.27;3.87;;;24.50;99.90;;;;;;5056459;28;20637;-78
2022/05/17 12:18:12;;;;;;;5.37;4.90;;;24.40;99.90;;;;;;5056924;28;20767;-78
2022/05/17 12:20:52;;;;;;;3.93;3.63;;;24.20;99.80;;;;;;5055890;28;20655;-78
2022/05/17 12:23:28;;;;;;;2.63;2.43;;;24.20;99.90;;;;;;5063002;28;20610;-78
2022/05/17 12:26:00;;;;;;;3.27;2.43;;;24.30;99.90;;;;;;5056325;28;20195;-78
2022/05/17 12:28:32;;;;;;;3.17;2.50;;;24.40;99.90;;;;;;5057777;28;20230;-78
2022/05/17 12:31:02;;;;;;;3.47;2.40;;;24.40;99.90;;;;;;5061709;28;20257;-78
2022/05/17 12:33:31;;;;;;;2.93;2.40;;;24.40;99.90;;;;;;5058668;28;20187;-78
2022/05/17 12:36:16;;;;;;;2.40;2.10;;;24.40;99.90;;;;;;5064585;28;20293;-79
2022/05/17 12:44:21;;;;;;;5.70;5.30;;;24.30;95.30;;;;;;5054094;28;20190;-77
2022/05/17 12:46:50;;;;;;;6.43;6.00;;;24.40;96.20;;;;;;5061378;28;20187;-78
2022/05/17 12:49:20;;;;;;;5.57;4.70;;;24.60;98.20;;;;;;5050308;28;20192;-77
2022/05/17 12:52:01;;;;;;;5.30;4.90;;;24.50;95.00;;;;;;5048695;28;20291;-78
2022/05/17 12:54:31;;;;;;;4.30;3.93;;;24.50;96.80;;;;;;5049041;28;20274;-78
2022/05/17 12:56:59;;;;;;;6.90;6.40;;;24.50;97.60;;;;;;5046507;28;20249;-78
2022/05/17 12:59:28;;;;;;;6.70;6.20;;;24.60;99.30;;;;;;5049389;28;20660;-78
2022/05/17 13:01:58;;;;;;;3.87;3.40;;;24.80;99.90;;;;;;5044843;28;20723;-78
2022/05/17 13:04:33;;;;;;;3.37;2.77;;;24.70;99.90;;;;;;5048559;28;20651;-78
2022/05/17 13:07:13;;;;;;;3.43;2.33;;;24.80;99.90;;;;;;5047545;28;20205;-78
2022/05/17 13:09:57;;;;;;;3.63;2.73;;;24.70;99.90;;;;;;5034111;28;20223;-78
2022/05/17 13:12:26;;;;;;;3.00;2.53;;;24.60;99.90;;;;;;5041406;28;20314;-78
2022/05/17 13:14:53;;;;;;;3.50;3.00;;;24.60;99.90;;;;;;5046036;28;20202;-77
2022/05/17 13:17:23;;;;;;;2.90;2.60;;;24.40;99.90;;;;;;5046543;28;20290;-78
2022/05/17 13:19:53;;;;;;;3.93;2.93;;;24.50;99.90;;;;;;5047567;28;20291;-78
2022/05/17 13:22:24;;;;;;;3.53;2.63;;;24.70;99.90;;;;;;5048333;28;20705;-78
2022/05/17 13:25:01;;;;;;;2.60;2.40;;;24.80;99.90;;;;;;5049081;28;20263;-77
2022/05/17 13:27:30;;;;;;;7.00;6.50;;;24.80;99.90;;;;;;5044406;28;20319;-78